Atlas — SV6729 — position and weather

sailwx.info

Track history (hours):
 
Tides and Currents Weather Stations Pressure Air Temp Water Temp Dewpoint Dewpoint Depression Visibility Wind Speed Wind Dir Waves Ship Positions

Atlas

Last reported at 2018-Jan-23 10:00 UTC. Time now 2018-Jan-23 10:18 UTC.
Position N 38°02' E 023°36'.

Length 29 m; draft 5 m.

Type: Tug. MMSI: 239611000.

Date/timePositionNaut miles runAvg speedWind from/ knotsBaromVisibWave heightAir tempDewpointWater temp
2018-Jan-23 10:00N 38°02' E 023°36'1 2.1
2018-Jan-23 09:30N 38°01' E 023°35'0 0.2
2018-Jan-23 09:00N 38°01' E 023°34'0 0.0
2018-Jan-23 08:30N 38°01' E 023°34'1 1.6
2018-Jan-23 08:00N 38°00' E 023°34'3 6.7
2018-Jan-23 07:30N 37°57' E 023°35'2 3.0
2018-Jan-23 06:59N 37°57' E 023°37'0 0.0
2018-Jan-23 06:30N 37°57' E 023°37'0 0.0
2018-Jan-23 06:00N 37°57' E 023°37'0 0.0
2018-Jan-23 05:30N 37°57' E 023°37'0 0.0
2018-Jan-23 05:00N 37°57' E 023°37'0 0.0
2018-Jan-23 04:30N 37°57' E 023°37'0 0.0
2018-Jan-23 04:00N 37°57' E 023°37'0 0.0
2018-Jan-21 22:31N 37°57' E 023°36'0 9.6
2018-Jan-21 22:30N 37°57' E 023°36'1 1.6
2018-Jan-21 22:00N 37°57' E 023°36'1 0.1
2018-Jan-21 10:31N 37°57' E 023°36'0 8.4
2018-Jan-21 10:30N 37°57' E 023°36'3 5.1
2018-Jan-21 10:00N 37°58' E 023°33'2 4.8
2018-Jan-21 09:30N 38°00' E 023°33'3 5.1
2018-Jan-21 09:00N 38°02' E 023°30'0 0.1
2018-Jan-21 08:30N 38°02' E 023°30'0 0.1
2018-Jan-21 08:00N 38°02' E 023°30'4 7.9
2018-Jan-21 07:30N 37°59' E 023°33'1 1.7
2018-Jan-21 06:52N 37°58' E 023°33'1 3.4
2018-Jan-21 06:29N 37°57' E 023°35'1 2.3
2018-Jan-21 06:00N 37°57' E 023°36'0 0.6
2018-Jan-21 05:30N 37°57' E 023°36'0 0.0
2018-Jan-21 04:59N 37°57' E 023°36'0 1.0
2018-Jan-21 04:30N 37°57' E 023°35'1 0.1
2018-Jan-20 22:32N 37°57' E 023°36'0 8.3
2018-Jan-20 22:31N 37°57' E 023°36'1 1.0
2018-Jan-20 22:01N 37°57' E 023°36'1 1.1
2018-Jan-20 21:31N 37°57' E 023°35'1 1.5
2018-Jan-20 21:00N 37°57' E 023°36'1 0.1
2018-Jan-20 15:35N 37°57' E 023°37'0 0.5
2018-Jan-20 15:31N 37°57' E 023°37'1 2.2
2018-Jan-20 15:00N 37°57' E 023°35'0 0.6
2018-Jan-20 14:30N 37°57' E 023°35'1 2.2
2018-Jan-20 14:00N 37°57' E 023°37'1 1.8
2018-Jan-20 13:31N 37°57' E 023°35'1 1.2
2018-Jan-20 13:01N 37°57' E 023°35'1 2.9
2018-Jan-20 12:31N 37°57' E 023°37'0 0.0
2018-Jan-20 12:00N 37°57' E 023°37'0 0.0
2018-Jan-20 02:34N 37°57' E 023°37'0 0.0
2018-Jan-20 02:31N 37°57' E 023°37'1 2.2
2018-Jan-20 02:00N 37°57' E 023°35'1 2.2
2018-Jan-20 01:31N 37°57' E 023°37'0 0.0
2018-Jan-20 01:01N 37°57' E 023°37'0 0.0
2018-Jan-20 00:31N 37°57' E 023°37'0 0.0
2018-Jan-20 00:00N 37°57' E 023°37'0 0.0
2018-Jan-19 23:30N 37°57' E 023°37'0 0.0
2018-Jan-19 23:00N 37°57' E 023°37'0 0.0
2018-Jan-19 22:31N 37°57' E 023°37'0 0.0
2018-Jan-19 22:00N 37°57' E 023°37'1 1.3
2018-Jan-19 21:30N 37°57' E 023°36'0 1.0
2018-Jan-19 21:00N 37°57' E 023°36'0 0.3
2018-Jan-19 20:31N 37°57' E 023°35'1 1.9
2018-Jan-19 20:00N 37°58' E 023°36'1 1.3
2018-Jan-19 19:30N 37°57' E 023°36'1 1.4
2018-Jan-19 19:01N 37°57' E 023°37'0 0.7
2018-Jan-19 18:30N 37°57' E 023°36'0 0.6
2018-Jan-19 18:00N 37°58' E 023°36'0 0.5
2018-Jan-19 17:30N 37°57' E 023°37'0 0.0
2018-Jan-19 17:01N 37°57' E 023°37'0 0.0
2018-Jan-19 16:30N 37°57' E 023°37'0 0.0
2018-Jan-19 16:01N 37°57' E 023°37'0 0.1
2018-Jan-19 15:30N 37°57' E 023°37'0 0.0
2018-Jan-19 15:01N 37°57' E 023°37'0 0.0
2018-Jan-19 14:30N 37°57' E 023°37'0 0.5
2018-Jan-19 14:00N 37°58' E 023°36'1 2.2
2018-Jan-19 13:31N 37°57' E 023°36'1 1.6
2018-Jan-19 13:01N 37°57' E 023°36'1 1.1
2018-Jan-19 12:31N 37°57' E 023°36'1 1.3
2018-Jan-19 12:01N 37°57' E 023°36'0 0.1
2018-Jan-19 11:30N 37°57' E 023°36'0 0.0
2018-Jan-18 21:42N 37°57' E 023°37'1 2.9
2018-Jan-18 21:30N 37°57' E 023°36'0 0.8
2018-Jan-18 21:00N 37°57' E 023°36'0 0.5
2018-Jan-18 20:30N 37°57' E 023°35'1 1.6
2018-Jan-18 20:00N 37°57' E 023°36'0 0.5
2018-Jan-18 19:30N 37°57' E 023°37'0 0.0
2018-Jan-18 19:00N 37°57' E 023°37'0 0.0
2018-Jan-18 18:30N 37°57' E 023°37'0 0.0
2018-Jan-18 18:00N 37°57' E 023°37'0 0.0
2018-Jan-18 17:30N 37°57' E 023°37'1 1.3
2018-Jan-18 17:00N 37°57' E 023°37'1 1.3
2018-Jan-18 16:30N 37°57' E 023°36'0 0.9
2018-Jan-18 16:00N 37°58' E 023°36'1 2.4
2018-Jan-18 15:30N 37°56' E 023°36'1 1.8
2018-Jan-18 15:00N 37°57' E 023°36'0 0.8
2018-Jan-18 14:30N 37°57' E 023°37'0 0.0
2018-Jan-18 14:00N 37°57' E 023°37'0 0.0
2018-Jan-18 13:30N 37°57' E 023°37'0 0.0
2018-Jan-18 13:00N 37°57' E 023°37'0 0.0
2018-Jan-18 12:30N 37°57' E 023°37'0 0.0
2018-Jan-18 12:00N 37°57' E 023°37'0 0.0
2018-Jan-18 02:33N 37°57' E 023°37'0 0.0
2018-Jan-18 02:30N 37°57' E 023°37'0 0.0
2018-Jan-18 02:00N 37°57' E 023°37'0 0.0
2018-Jan-18 01:30N 37°57' E 023°37'0 0.0
2018-Jan-18 01:00N 37°57' E 023°37'0 0.0
2018-Jan-18 00:00N 37°57' E 023°37'0 0.0
2018-Jan-17 23:57N 37°57' E 023°37'  
Track history (hours):
 
Tides and Currents Weather Stations Pressure Air Temp Water Temp Dewpoint Dewpoint Depression Visibility Wind Speed Wind Dir Waves Ship Positions

Atlas

Last reported at 2018-Jan-23 10:00 UTC. Time now 2018-Jan-23 10:18 UTC.
Position N 38°02' E 023°36'.

Length 29 m; draft 5 m.

Type: Tug. MMSI: 239611000.

Date/timePositionNaut miles runAvg speedWind from/ knotsBaromVisibWave heightAir tempDewpointWater temp
2018-Jan-23 10:00N 38°02' E 023°36'1 2.1
2018-Jan-23 09:30N 38°01' E 023°35'0 0.2
2018-Jan-23 09:00N 38°01' E 023°34'0 0.0
2018-Jan-23 08:30N 38°01' E 023°34'1 1.6
2018-Jan-23 08:00N 38°00' E 023°34'3 6.7
2018-Jan-23 07:30N 37°57' E 023°35'2 3.0
2018-Jan-23 06:59N 37°57' E 023°37'0 0.0
2018-Jan-23 06:30N 37°57' E 023°37'0 0.0
2018-Jan-23 06:00N 37°57' E 023°37'0 0.0
2018-Jan-23 05:30N 37°57' E 023°37'0 0.0
2018-Jan-23 05:00N 37°57' E 023°37'0 0.0
2018-Jan-23 04:30N 37°57' E 023°37'0 0.0
2018-Jan-23 04:00N 37°57' E 023°37'0 0.0
2018-Jan-21 22:31N 37°57' E 023°36'0 9.6
2018-Jan-21 22:30N 37°57' E 023°36'1 1.6
2018-Jan-21 22:00N 37°57' E 023°36'1 0.1
2018-Jan-21 10:31N 37°57' E 023°36'0 8.4
2018-Jan-21 10:30N 37°57' E 023°36'3 5.1
2018-Jan-21 10:00N 37°58' E 023°33'2 4.8
2018-Jan-21 09:30N 38°00' E 023°33'3 5.1
2018-Jan-21 09:00N 38°02' E 023°30'0 0.1
2018-Jan-21 08:30N 38°02' E 023°30'0 0.1
2018-Jan-21 08:00N 38°02' E 023°30'4 7.9
2018-Jan-21 07:30N 37°59' E 023°33'1 1.7
2018-Jan-21 06:52N 37°58' E 023°33'1 3.4
2018-Jan-21 06:29N 37°57' E 023°35'1 2.3
2018-Jan-21 06:00N 37°57' E 023°36'0 0.6
2018-Jan-21 05:30N 37°57' E 023°36'0 0.0
2018-Jan-21 04:59N 37°57' E 023°36'0 1.0
2018-Jan-21 04:30N 37°57' E 023°35'1 0.1
2018-Jan-20 22:32N 37°57' E 023°36'0 8.3
2018-Jan-20 22:31N 37°57' E 023°36'1 1.0
2018-Jan-20 22:01N 37°57' E 023°36'1 1.1
2018-Jan-20 21:31N 37°57' E 023°35'1 1.5
2018-Jan-20 21:00N 37°57' E 023°36'1 0.1
2018-Jan-20 15:35N 37°57' E 023°37'0 0.5
2018-Jan-20 15:31N 37°57' E 023°37'1 2.2
2018-Jan-20 15:00N 37°57' E 023°35'0 0.6
2018-Jan-20 14:30N 37°57' E 023°35'1 2.2
2018-Jan-20 14:00N 37°57' E 023°37'1 1.8
2018-Jan-20 13:31N 37°57' E 023°35'1 1.2
2018-Jan-20 13:01N 37°57' E 023°35'1 2.9
2018-Jan-20 12:31N 37°57' E 023°37'0 0.0
2018-Jan-20 12:00N 37°57' E 023°37'0 0.0
2018-Jan-20 02:34N 37°57' E 023°37'0 0.0
2018-Jan-20 02:31N 37°57' E 023°37'1 2.2
2018-Jan-20 02:00N 37°57' E 023°35'1 2.2
2018-Jan-20 01:31N 37°57' E 023°37'0 0.0
2018-Jan-20 01:01N 37°57' E 023°37'0 0.0
2018-Jan-20 00:31N 37°57' E 023°37'0 0.0
2018-Jan-20 00:00N 37°57' E 023°37'0 0.0
2018-Jan-19 23:30N 37°57' E 023°37'0 0.0
2018-Jan-19 23:00N 37°57' E 023°37'0 0.0
2018-Jan-19 22:31N 37°57' E 023°37'0 0.0
2018-Jan-19 22:00N 37°57' E 023°37'1 1.3
2018-Jan-19 21:30N 37°57' E 023°36'0 1.0
2018-Jan-19 21:00N 37°57' E 023°36'0 0.3
2018-Jan-19 20:31N 37°57' E 023°35'1 1.9
2018-Jan-19 20:00N 37°58' E 023°36'1 1.3
2018-Jan-19 19:30N 37°57' E 023°36'1 1.4
2018-Jan-19 19:01N 37°57' E 023°37'0 0.7
2018-Jan-19 18:30N 37°57' E 023°36'0 0.6
2018-Jan-19 18:00N 37°58' E 023°36'0 0.5
2018-Jan-19 17:30N 37°57' E 023°37'0 0.0
2018-Jan-19 17:01N 37°57' E 023°37'0 0.0
2018-Jan-19 16:30N 37°57' E 023°37'0 0.0
2018-Jan-19 16:01N 37°57' E 023°37'0 0.1
2018-Jan-19 15:30N 37°57' E 023°37'0 0.0
2018-Jan-19 15:01N 37°57' E 023°37'0 0.0
2018-Jan-19 14:30N 37°57' E 023°37'0 0.5
2018-Jan-19 14:00N 37°58' E 023°36'1 2.2
2018-Jan-19 13:31N 37°57' E 023°36'1 1.6
2018-Jan-19 13:01N 37°57' E 023°36'1 1.1
2018-Jan-19 12:31N 37°57' E 023°36'1 1.3
2018-Jan-19 12:01N 37°57' E 023°36'0 0.1
2018-Jan-19 11:30N 37°57' E 023°36'0 0.0
2018-Jan-18 21:42N 37°57' E 023°37'1 2.9
2018-Jan-18 21:30N 37°57' E 023°36'0 0.8
2018-Jan-18 21:00N 37°57' E 023°36'0 0.5
2018-Jan-18 20:30N 37°57' E 023°35'1 1.6
2018-Jan-18 20:00N 37°57' E 023°36'0 0.5
2018-Jan-18 19:30N 37°57' E 023°37'0 0.0
2018-Jan-18 19:00N 37°57' E 023°37'0 0.0
2018-Jan-18 18:30N 37°57' E 023°37'0 0.0
2018-Jan-18 18:00N 37°57' E 023°37'0 0.0
2018-Jan-18 17:30N 37°57' E 023°37'1 1.3
2018-Jan-18 17:00N 37°57' E 023°37'1 1.3
2018-Jan-18 16:30N 37°57' E 023°36'0 0.9
2018-Jan-18 16:00N 37°58' E 023°36'1 2.4
2018-Jan-18 15:30N 37°56' E 023°36'1 1.8
2018-Jan-18 15:00N 37°57' E 023°36'0 0.8
2018-Jan-18 14:30N 37°57' E 023°37'0 0.0
2018-Jan-18 14:00N 37°57' E 023°37'0 0.0
2018-Jan-18 13:30N 37°57' E 023°37'0 0.0
2018-Jan-18 13:00N 37°57' E 023°37'0 0.0
2018-Jan-18 12:30N 37°57' E 023°37'0 0.0
2018-Jan-18 12:00N 37°57' E 023°37'0 0.0
2018-Jan-18 02:33N 37°57' E 023°37'0 0.0
2018-Jan-18 02:30N 37°57' E 023°37'0 0.0
2018-Jan-18 02:00N 37°57' E 023°37'0 0.0
2018-Jan-18 01:30N 37°57' E 023°37'0 0.0
2018-Jan-18 01:00N 37°57' E 023°37'0 0.0
2018-Jan-18 00:00N 37°57' E 023°37'0 0.0
2018-Jan-17 23:57N 37°57' E 023°37'  

Dump ship's entire track history